createdAt,value
2023-07-05T00:01:04.517Z,98509.28
2023-07-05T00:03:31.652Z,98509.28
2023-07-05T00:06:04.917Z,98516.53
2023-07-05T00:08:33.404Z,98510.34
2023-07-05T00:11:08.568Z,98515.69
2023-07-05T00:13:36.389Z,98523.44
2023-07-05T00:16:03.933Z,98521.00
2023-07-05T00:18:31.431Z,98513.69
2023-07-05T00:21:03.274Z,98519.84
2023-07-05T00:23:35.034Z,98522.69
2023-07-05T00:26:03.232Z,98520.06
2023-07-05T00:28:30.129Z,98516.00
2023-07-05T00:30:56.966Z,98509.19
2023-07-05T00:33:23.884Z,98508.19
2023-07-05T00:35:53.491Z,98508.81
2023-07-05T00:38:21.572Z,98514.41
2023-07-05T00:40:48.967Z,98509.84
2023-07-05T00:43:17.667Z,98503.03
2023-07-05T00:46:00.917Z,98503.94
2023-07-05T00:48:45.524Z,98500.50
2023-07-05T00:51:21.060Z,98501.44
2023-07-05T00:53:48.308Z,98498.16
2023-07-05T00:56:52.212Z,98499.59
2023-07-05T00:59:21.544Z,98495.84
2023-07-05T01:02:02.021Z,98500.34
2023-07-05T01:04:33.888Z,98490.28
2023-07-05T01:07:01.297Z,98487.97
2023-07-05T01:09:28.370Z,98487.44
2023-07-05T01:12:18.073Z,98485.81
2023-07-05T01:15:17.339Z,98488.34
2023-07-05T01:18:08.367Z,98489.47
2023-07-05T01:20:35.282Z,98489.91
2023-07-05T01:23:14.209Z,98490.03
2023-07-05T01:26:02.466Z,98482.41
2023-07-05T01:28:38.635Z,98485.22
2023-07-05T01:31:17.609Z,98481.97
2023-07-05T01:33:50.939Z,98488.72
2023-07-05T01:36:19.639Z,98492.59
2023-07-05T01:38:46.476Z,98490.47
2023-07-05T01:41:13.300Z,98482.31
2023-07-05T01:43:43.013Z,98482.63
2023-07-05T01:46:29.376Z,98491.25
2023-07-05T01:48:58.293Z,98482.28
2023-07-05T01:51:37.310Z,98472.22
2023-07-05T01:54:12.893Z,98478.22
2023-07-05T01:56:45.491Z,98476.91
2023-07-05T01:59:13.800Z,98480.25
2023-07-05T02:01:43.769Z,98476.50
2023-07-05T02:04:14.731Z,98480.12
2023-07-05T02:06:44.559Z,98473.31
2023-07-05T02:09:11.372Z,98479.13
2023-07-05T02:11:38.650Z,98483.59
2023-07-05T02:14:05.807Z,98479.22
2023-07-05T02:16:32.859Z,98474.34
2023-07-05T02:18:59.681Z,98470.28
2023-07-05T02:21:26.490Z,98468.44
2023-07-05T02:23:53.367Z,98474.75
2023-07-05T02:26:20.168Z,98468.81
2023-07-05T02:28:46.987Z,98467.50
2023-07-05T02:31:14.078Z,98464.84
2023-07-05T02:33:42.143Z,98464.34
2023-07-05T02:36:14.831Z,98470.97
2023-07-05T02:38:42.255Z,98475.13
2023-07-05T02:41:09.634Z,98471.25
2023-07-05T02:43:36.720Z,98472.16
2023-07-05T02:46:04.316Z,98464.22
2023-07-05T02:48:31.178Z,98461.25
2023-07-05T02:50:57.995Z,98466.25
2023-07-05T02:53:24.789Z,98468.78
2023-07-05T02:55:52.589Z,98460.34
2023-07-05T02:58:19.646Z,98470.81
2023-07-05T03:00:46.471Z,98471.09
2023-07-05T03:03:13.288Z,98476.09
2023-07-05T03:05:40.078Z,98481.66
2023-07-05T03:08:07.059Z,98477.81
2023-07-05T03:10:38.634Z,98469.03
2023-07-05T03:13:05.487Z,98474.63
2023-07-05T03:15:32.415Z,98472.75
2023-07-05T03:17:59.238Z,98477.72
2023-07-05T03:20:26.063Z,98480.75
2023-07-05T03:22:52.960Z,98487.16
2023-07-05T03:25:19.838Z,98477.28
2023-07-05T03:27:46.633Z,98475.66
2023-07-05T03:30:13.862Z,98474.34
2023-07-05T03:32:44.755Z,98476.53
2023-07-05T03:35:12.520Z,98472.97
2023-07-05T03:37:39.400Z,98470.84
2023-07-05T03:40:07.047Z,98467.78
2023-07-05T03:42:33.911Z,98461.50
2023-07-05T03:45:00.728Z,98472.47
2023-07-05T03:47:31.133Z,98471.34
2023-07-05T03:49:57.997Z,98470.75
2023-07-05T03:52:24.893Z,98475.16
2023-07-05T03:54:51.776Z,98483.66
2023-07-05T03:57:18.569Z,98488.06
2023-07-05T03:59:47.637Z,98479.81
2023-07-05T04:02:14.506Z,98486.63
2023-07-05T04:04:43.966Z,98485.81
2023-07-05T04:07:10.894Z,98490.72
2023-07-05T04:09:37.710Z,98483.81
2023-07-05T04:12:04.912Z,98482.38
2023-07-05T04:14:31.740Z,98486.16
2023-07-05T04:16:59.919Z,98488.34
2023-07-05T04:19:26.862Z,98485.81
2023-07-05T04:21:53.703Z,98487.66
2023-07-05T04:24:20.555Z,98482.09
2023-07-05T04:26:47.451Z,98485.84
2023-07-05T04:29:14.275Z,98486.06
2023-07-05T04:31:41.206Z,98485.16
2023-07-05T04:34:08.085Z,98493.59
2023-07-05T04:36:34.957Z,98493.84
2023-07-05T04:39:02.130Z,98486.63
2023-07-05T04:41:29.237Z,98493.94
2023-07-05T04:43:56.148Z,98494.97
2023-07-05T04:46:24.038Z,98495.69
2023-07-05T04:48:51.579Z,98492.03
2023-07-05T04:51:18.515Z,98481.47
2023-07-05T04:53:45.655Z,98490.09
2023-07-05T04:56:14.417Z,98486.94
2023-07-05T04:58:41.733Z,98485.44
2023-07-05T05:01:09.657Z,98483.91
2023-07-05T05:03:36.692Z,98489.84
2023-07-05T05:06:03.791Z,98489.44
2023-07-05T05:08:30.956Z,98486.78
2023-07-05T05:11:00.585Z,98486.66
2023-07-05T05:13:30.901Z,98486.28
2023-07-05T05:15:58.510Z,98493.78
2023-07-05T05:18:29.094Z,98489.78
2023-07-05T05:20:56.505Z,98486.59
2023-07-05T05:23:23.758Z,98501.91
2023-07-05T05:25:51.040Z,98491.59
2023-07-05T05:28:18.737Z,98496.66
2023-07-05T05:30:46.202Z,98490.72
2023-07-05T05:33:14.531Z,98492.25
2023-07-05T05:35:50.604Z,98489.06
2023-07-05T05:38:21.069Z,98496.91
2023-07-05T05:40:51.889Z,98493.41
2023-07-05T05:43:19.955Z,98498.16
2023-07-05T05:45:47.190Z,98500.16
2023-07-05T05:48:14.045Z,98508.50
2023-07-05T05:50:40.912Z,98503.03
2023-07-05T05:53:07.886Z,98494.00
2023-07-05T05:55:34.705Z,98498.75
2023-07-05T05:58:01.554Z,98502.38
2023-07-05T06:00:29.721Z,98501.59
2023-07-05T06:02:58.565Z,98503.62
2023-07-05T06:05:26.129Z,98500.06
2023-07-05T06:07:54.765Z,98497.66
2023-07-05T06:10:23.453Z,98502.41
2023-07-05T06:12:50.336Z,98499.19
2023-07-05T06:15:17.461Z,98500.34
2023-07-05T06:17:44.400Z,98503.94
2023-07-05T06:20:12.911Z,98498.78
2023-07-05T06:22:40.172Z,98502.66
2023-07-05T06:25:07.274Z,98505.78
2023-07-05T06:27:37.844Z,98504.97
2023-07-05T06:30:05.446Z,98514.44
2023-07-05T06:32:33.651Z,98512.03
2023-07-05T06:35:00.542Z,98512.34
2023-07-05T06:37:27.420Z,98505.19
2023-07-05T06:39:54.664Z,98505.53
2023-07-05T06:42:21.537Z,98499.19
2023-07-05T06:44:48.378Z,98501.44
2023-07-05T06:47:15.215Z,98505.38
2023-07-05T06:49:43.918Z,98508.78
2023-07-05T06:52:11.099Z,98507.59
2023-07-05T06:54:37.884Z,98505.19
2023-07-05T06:57:05.096Z,98515.44
2023-07-05T06:59:33.649Z,98512.63
2023-07-05T07:02:00.645Z,98519.31
2023-07-05T07:04:27.624Z,98518.47
2023-07-05T07:06:54.494Z,98517.94
2023-07-05T07:09:21.398Z,98523.75
2023-07-05T07:11:48.217Z,98523.75
2023-07-05T07:14:15.093Z,98525.66
2023-07-05T07:16:42.071Z,98516.03
2023-07-05T07:19:09.279Z,98520.72
2023-07-05T07:21:36.155Z,98514.37
2023-07-05T07:24:03.105Z,98521.50
2023-07-05T07:26:30.042Z,98512.31
2023-07-05T07:28:58.056Z,98512.59
2023-07-05T07:31:28.052Z,98513.69
2023-07-05T07:33:55.561Z,98514.44
2023-07-05T07:36:25.580Z,98511.59
2023-07-05T07:38:53.628Z,98509.94
2023-07-05T07:41:21.904Z,98508.72
2023-07-05T07:43:53.697Z,98507.50
2023-07-05T07:46:22.988Z,98504.69
2023-07-05T07:48:51.983Z,98505.41
2023-07-05T07:51:36.610Z,98500.13
2023-07-05T07:54:12.986Z,98505.25
2023-07-05T07:56:42.895Z,98505.16
2023-07-05T07:59:09.886Z,98492.84
2023-07-05T08:01:41.387Z,98504.28
2023-07-05T08:04:11.636Z,98502.59
2023-07-05T08:06:47.296Z,98505.75
2023-07-05T08:09:19.006Z,98500.56
2023-07-05T08:11:46.366Z,98503.59
2023-07-05T08:14:18.394Z,98497.09
2023-07-05T08:16:46.428Z,98492.59
2023-07-05T08:19:14.265Z,98499.19
2023-07-05T08:21:44.070Z,98492.72
2023-07-05T08:26:43.742Z,98491.25
2023-07-05T08:29:10.913Z,98493.88
2023-07-05T08:31:38.362Z,98494.09
2023-07-05T08:34:05.311Z,98495.47
2023-07-05T08:36:37.477Z,98494.53
2023-07-05T08:39:06.933Z,98492.41
2023-07-05T08:41:40.172Z,98494.63
2023-07-05T08:44:32.592Z,98501.19
2023-07-05T08:47:02.352Z,98490.28
2023-07-05T08:49:51.281Z,98482.97
2023-07-05T08:52:33.090Z,98491.63
2023-07-05T08:55:03.253Z,98498.28
2023-07-05T08:57:40.071Z,98495.00
2023-07-05T09:00:14.840Z,98494.00
2023-07-05T09:02:42.026Z,98490.72
2023-07-05T09:05:16.829Z,98488.25
2023-07-05T09:07:50.457Z,98492.09
2023-07-05T09:10:35.990Z,98496.41
2023-07-05T09:13:12.115Z,98500.63
2023-07-05T09:15:56.778Z,98483.31
2023-07-05T09:18:57.583Z,98486.25
2023-07-05T09:21:38.581Z,98488.84
2023-07-05T09:24:08.308Z,98490.38
2023-07-05T09:26:42.692Z,98484.34
2023-07-05T09:29:22.989Z,98487.72
2023-07-05T09:31:50.992Z,98487.88
2023-07-05T09:34:40.421Z,98482.47
2023-07-05T09:37:31.710Z,98481.53
2023-07-05T09:40:16.629Z,98478.16
2023-07-05T09:43:12.755Z,98472.81
2023-07-05T09:45:39.563Z,98485.34
2023-07-05T09:48:12.683Z,98480.31
2023-07-05T09:50:48.381Z,98491.97
2023-07-05T09:53:21.329Z,98481.25
2023-07-05T09:56:07.209Z,98473.81
2023-07-05T09:58:35.221Z,98475.59
2023-07-05T10:01:05.981Z,98472.56
2023-07-05T10:03:38.269Z,98473.19
2023-07-05T10:06:11.792Z,98463.84
2023-07-05T10:08:54.432Z,98467.91
2023-07-05T10:11:28.269Z,98463.72
2023-07-05T10:14:04.209Z,98467.84
2023-07-05T10:16:46.444Z,98458.00
2023-07-05T10:19:42.618Z,98457.41
2023-07-05T10:22:21.763Z,98456.28
2023-07-05T10:24:50.972Z,98458.38
2023-07-05T10:27:37.113Z,98459.31
2023-07-05T10:30:08.393Z,98450.56
2023-07-05T10:32:37.748Z,98454.66
2023-07-05T10:35:20.030Z,98449.94
2023-07-05T10:37:47.336Z,98442.91
2023-07-05T10:40:14.400Z,98441.03
2023-07-05T10:42:49.996Z,98438.37
2023-07-05T10:45:20.431Z,98441.25
2023-07-05T10:47:53.918Z,98443.75
2023-07-05T10:50:29.498Z,98437.44
2023-07-05T10:53:18.885Z,98438.75
2023-07-05T10:56:10.949Z,98441.22
2023-07-05T10:59:05.532Z,98432.59
2023-07-05T11:01:43.711Z,98437.09
2023-07-05T11:04:19.944Z,98429.63
2023-07-05T11:06:49.523Z,98428.09
2023-07-05T11:09:18.436Z,98420.56
2023-07-05T11:11:52.511Z,98416.66
2023-07-05T11:14:19.807Z,98416.72
2023-07-05T11:16:48.710Z,98418.41
2023-07-05T11:19:18.867Z,98408.84
2023-07-05T11:21:50.768Z,98408.87
2023-07-05T11:24:26.881Z,98406.97
2023-07-05T11:26:54.239Z,98414.66
2023-07-05T11:29:33.397Z,98404.72
2023-07-05T11:32:07.465Z,98400.31
2023-07-05T11:34:41.973Z,98398.34
2023-07-05T11:37:11.787Z,98393.94
2023-07-05T11:39:52.460Z,98392.78
2023-07-05T11:42:20.849Z,98396.81
2023-07-05T11:45:08.697Z,98388.81
2023-07-05T11:47:35.824Z,98381.69
2023-07-05T11:50:08.474Z,98381.69
2023-07-05T11:52:38.116Z,98369.28
2023-07-05T11:55:24.867Z,98369.28
2023-07-05T11:58:10.181Z,98355.66
2023-07-05T12:00:49.035Z,98359.69
2023-07-05T12:03:18.694Z,98354.87
2023-07-05T12:05:47.905Z,98350.88
2023-07-05T12:08:22.534Z,98355.28
2023-07-05T12:11:00.340Z,98342.41
2023-07-05T12:13:31.933Z,98352.84
2023-07-05T12:15:59.650Z,98338.41
2023-07-05T12:18:28.791Z,98337.97
2023-07-05T12:20:57.530Z,98338.38
2023-07-05T12:23:26.727Z,98326.72
2023-07-05T12:25:55.957Z,98329.94
2023-07-05T12:28:29.011Z,98326.72
2023-07-05T12:31:03.199Z,98318.69
2023-07-05T12:33:35.866Z,98327.53
2023-07-05T12:36:14.532Z,98325.13
2023-07-05T12:38:44.655Z,98307.84
2023-07-05T12:41:28.279Z,98311.03
2023-07-05T12:44:17.543Z,98301.37
2023-07-05T12:46:49.527Z,98300.19
2023-07-05T12:49:28.005Z,98304.16
2023-07-05T12:51:56.819Z,98298.09
2023-07-05T12:54:24.556Z,98296.50
2023-07-05T12:56:54.831Z,98295.25
2023-07-05T13:00:05.144Z,98286.00
2023-07-05T13:02:34.183Z,98293.59
2023-07-05T13:05:04.139Z,98279.91
2023-07-05T13:07:33.686Z,98284.28
2023-07-05T13:10:04.116Z,98291.09
2023-07-05T13:12:46.401Z,98282.19
2023-07-05T13:15:13.368Z,98295.00
2023-07-05T13:17:40.647Z,98297.38
2023-07-05T13:20:18.187Z,98294.53
2023-07-05T13:22:50.470Z,98288.47
2023-07-05T13:25:40.339Z,98291.31
2023-07-05T13:28:18.416Z,98294.53
2023-07-05T13:30:45.415Z,98288.09
2023-07-05T13:33:13.950Z,98282.84
2023-07-05T13:35:41.082Z,98287.22
2023-07-05T13:38:08.822Z,98287.19
2023-07-05T13:40:37.148Z,98284.38
2023-07-05T13:43:05.940Z,98286.81
2023-07-05T13:45:33.529Z,98283.16
2023-07-05T13:48:01.381Z,98287.13
2023-07-05T13:50:32.656Z,98282.72
2023-07-05T13:53:00.266Z,98285.50
2023-07-05T13:55:27.280Z,98288.66
2023-07-05T13:58:01.523Z,98287.41
2023-07-05T14:00:30.996Z,98281.72
2023-07-05T14:03:02.393Z,98287.75
2023-07-05T14:05:30.558Z,98279.69
2023-07-05T14:08:03.487Z,98286.09
2023-07-05T14:10:32.140Z,98281.62
2023-07-05T14:13:00.033Z,98292.41
2023-07-05T14:15:34.517Z,98279.06
2023-07-05T14:18:01.500Z,98281.09
2023-07-05T14:20:31.919Z,98272.22
2023-07-05T14:23:03.126Z,98265.31
2023-07-05T14:25:33.854Z,98263.25
2023-07-05T14:28:02.178Z,98266.81
2023-07-05T14:30:29.111Z,98257.09
2023-07-05T14:32:56.071Z,98255.44
2023-07-05T14:35:23.918Z,98254.19
2023-07-05T14:37:52.995Z,98248.13
2023-07-05T14:40:25.825Z,98254.19
2023-07-05T14:42:55.725Z,98251.75
2023-07-05T14:45:28.394Z,98251.75
2023-07-05T14:47:59.426Z,98250.16
2023-07-05T14:50:28.197Z,98246.09
2023-07-05T14:53:00.060Z,98239.66
2023-07-05T14:55:31.255Z,98239.25
2023-07-05T14:57:58.536Z,98239.25
2023-07-05T15:00:28.413Z,98238.88
2023-07-05T15:03:06.479Z,98242.94
2023-07-05T15:05:33.435Z,98238.94
2023-07-05T15:08:02.141Z,98245.47
2023-07-05T15:10:29.845Z,98251.22
2023-07-05T15:12:57.761Z,98250.88
2023-07-05T15:15:33.104Z,98246.09
2023-07-05T15:18:00.059Z,98249.38
2023-07-05T15:20:27.495Z,98236.16
2023-07-05T15:22:54.658Z,98240.22
2023-07-05T15:25:22.607Z,98244.69
2023-07-05T15:27:53.081Z,98254.00
2023-07-05T15:30:21.961Z,98255.28
2023-07-05T15:32:49.076Z,98256.94
2023-07-05T15:35:21.648Z,98264.22
2023-07-05T15:37:49.841Z,98260.66
2023-07-05T15:40:20.227Z,98265.56
2023-07-05T15:42:48.920Z,98274.03
2023-07-05T15:45:16.867Z,98268.44
2023-07-05T15:47:44.320Z,98263.69
2023-07-05T15:50:16.652Z,98264.13
2023-07-05T15:52:44.406Z,98269.81
2023-07-05T15:55:12.565Z,98284.72
2023-07-05T15:57:39.554Z,98290.81
2023-07-05T16:00:10.030Z,98287.66
2023-07-05T16:02:51.881Z,98289.31
2023-07-05T16:05:18.798Z,98290.97
2023-07-05T16:07:45.617Z,98282.16
2023-07-05T16:10:12.739Z,98282.56
2023-07-05T16:12:39.840Z,98279.00
2023-07-05T16:15:07.793Z,98276.19
2023-07-05T16:17:35.304Z,98275.81
2023-07-05T16:20:03.213Z,98272.19
2023-07-05T16:22:30.120Z,98267.81
2023-07-05T16:24:57.060Z,98276.22
2023-07-05T16:27:24.280Z,98279.81
2023-07-05T16:29:51.489Z,98283.84
2023-07-05T16:32:18.424Z,98278.25
2023-07-05T16:34:45.701Z,98279.37
2023-07-05T16:37:12.951Z,98270.13
2023-07-05T16:39:39.786Z,98272.47
2023-07-05T16:42:07.361Z,98265.16
2023-07-05T16:44:34.434Z,98268.31
2023-07-05T16:47:01.620Z,98269.03
2023-07-05T16:49:29.116Z,98283.00
2023-07-05T16:51:59.339Z,98280.09
2023-07-05T16:54:26.644Z,98282.44
2023-07-05T16:56:53.575Z,98279.97
2023-07-05T16:59:20.953Z,98289.50
2023-07-05T17:01:48.408Z,98294.22
2023-07-05T17:04:15.996Z,98286.47
2023-07-05T17:06:43.945Z,98280.81
2023-07-05T17:09:11.237Z,98283.50
2023-07-05T17:11:38.301Z,98282.25
2023-07-05T17:14:05.898Z,98280.16
2023-07-05T17:16:33.306Z,98282.84
2023-07-05T17:19:00.628Z,98291.19
2023-07-05T17:21:27.793Z,98285.06
2023-07-05T17:23:55.517Z,98281.00
2023-07-05T17:26:22.670Z,98281.75
2023-07-05T17:28:49.861Z,98276.53
2023-07-05T17:31:21.945Z,98276.50
2023-07-05T17:33:51.155Z,98272.44
2023-07-05T17:36:21.802Z,98281.50
2023-07-05T17:38:57.572Z,98267.88
2023-07-05T17:41:26.041Z,98267.44
2023-07-05T17:43:53.247Z,98273.00
2023-07-05T17:46:35.530Z,98278.56
2023-07-05T17:49:04.767Z,98281.31
2023-07-05T17:51:34.468Z,98283.22
2023-07-05T17:54:03.414Z,98291.16
2023-07-05T17:56:30.640Z,98295.13
2023-07-05T17:58:58.661Z,98300.63
2023-07-05T18:01:28.934Z,98297.38
2023-07-05T18:03:57.204Z,98295.72
2023-07-05T18:06:24.463Z,98304.03
2023-07-05T18:08:51.612Z,98313.12
2023-07-05T18:11:22.706Z,98311.03
2023-07-05T18:13:50.854Z,98318.13
2023-07-05T18:16:20.587Z,98313.59
2023-07-05T18:18:48.929Z,98311.94
2023-07-05T18:21:18.366Z,98309.44
2023-07-05T18:23:51.396Z,98318.50
2023-07-05T18:26:22.869Z,98317.25
2023-07-05T18:28:53.559Z,98322.72
2023-07-05T18:31:22.824Z,98328.62
2023-07-05T18:33:52.137Z,98339.28
2023-07-05T18:36:23.364Z,98337.97
2023-07-05T18:38:52.844Z,98347.06
2023-07-05T18:41:22.897Z,98362.87
2023-07-05T18:43:51.932Z,98381.91
2023-07-05T18:46:19.521Z,98394.88
2023-07-05T18:48:47.609Z,98402.72
2023-07-05T18:51:15.757Z,98407.78
2023-07-05T18:53:43.833Z,98409.28
2023-07-05T18:56:17.577Z,98414.31
2023-07-05T18:58:44.809Z,98421.34
2023-07-05T19:01:18.195Z,98421.94
2023-07-05T19:03:47.691Z,98425.22
2023-07-05T19:06:18.485Z,98430.28
2023-07-05T19:08:48.505Z,98440.19
2023-07-05T19:11:20.822Z,98447.88
2023-07-05T19:13:49.150Z,98445.28
2023-07-05T19:16:19.305Z,98452.69
2023-07-05T19:18:47.513Z,98454.94
2023-07-05T19:21:15.197Z,98455.56
2023-07-05T19:23:45.644Z,98459.06
2023-07-05T19:26:15.219Z,98460.16
2023-07-05T19:28:45.781Z,98457.28
2023-07-05T19:31:16.327Z,98467.97
2023-07-05T19:33:45.394Z,98474.94
2023-07-05T19:36:12.689Z,98488.78
2023-07-05T19:38:39.727Z,98487.06
2023-07-05T19:41:07.255Z,98493.72
2023-07-05T19:43:35.780Z,98499.06
2023-07-05T19:46:08.927Z,98498.94
2023-07-05T19:48:36.490Z,98494.00
2023-07-05T19:51:07.444Z,98495.00
2023-07-05T19:53:37.381Z,98493.66
2023-07-05T19:56:05.778Z,98500.88
2023-07-05T19:58:34.013Z,98513.16
2023-07-05T20:01:02.060Z,98506.69
2023-07-05T20:03:29.643Z,98504.16
2023-07-05T20:05:57.672Z,98507.53
2023-07-05T20:08:25.886Z,98500.25
2023-07-05T20:10:53.595Z,98505.56
2023-07-05T20:13:22.669Z,98502.59
2023-07-05T20:15:58.049Z,98498.19
2023-07-05T20:18:26.477Z,98499.59
2023-07-05T20:20:57.262Z,98500.75
2023-07-05T20:23:35.425Z,98501.00
2023-07-05T20:26:03.826Z,98506.44
2023-07-05T20:28:31.028Z,98504.72
2023-07-05T20:30:58.564Z,98502.66
2023-07-05T20:33:28.357Z,98492.47
2023-07-05T20:36:05.809Z,98501.41
2023-07-05T20:38:32.891Z,98504.88
2023-07-05T20:41:00.282Z,98507.09
2023-07-05T20:43:27.165Z,98498.72
2023-07-05T20:45:59.376Z,98500.22
2023-07-05T20:48:27.249Z,98498.75
2023-07-05T20:51:16.340Z,98504.97
2023-07-05T20:53:46.978Z,98499.87
2023-07-05T20:56:16.489Z,98510.75
2023-07-05T20:58:43.927Z,98510.75
2023-07-05T21:01:12.734Z,98512.13
2023-07-05T21:03:41.989Z,98509.91
2023-07-05T21:06:10.506Z,98505.53
2023-07-05T21:08:37.645Z,98500.66
2023-07-05T21:11:06.913Z,98501.72
2023-07-05T21:13:35.148Z,98499.63
2023-07-05T21:16:07.720Z,98491.97
2023-07-05T21:18:34.769Z,98492.66
2023-07-05T21:21:02.338Z,98499.81
2023-07-05T21:23:30.699Z,98510.00
2023-07-05T21:26:00.200Z,98505.44
2023-07-05T21:28:27.333Z,98509.03
2023-07-05T21:30:59.283Z,98507.75
2023-07-05T21:33:27.761Z,98517.22
2023-07-05T21:35:59.393Z,98512.72
2023-07-05T21:38:28.004Z,98517.91
2023-07-05T21:40:57.516Z,98513.06
2023-07-05T21:43:26.343Z,98515.72
2023-07-05T21:45:54.390Z,98514.06
2023-07-05T21:48:29.076Z,98518.00
2023-07-05T21:50:57.532Z,98517.88
2023-07-05T21:53:24.632Z,98515.91
2023-07-05T21:56:02.789Z,98533.22
2023-07-05T21:58:31.662Z,98535.19
2023-07-05T22:01:00.716Z,98535.88
2023-07-05T22:03:28.651Z,98541.28
2023-07-05T22:05:58.306Z,98546.38
2023-07-05T22:08:25.832Z,98547.66
2023-07-05T22:10:56.210Z,98550.41
2023-07-05T22:13:23.627Z,98551.22
2023-07-05T22:15:50.481Z,98554.00
2023-07-05T22:18:18.886Z,98553.19
2023-07-05T22:20:47.875Z,98549.12
2023-07-05T22:23:16.382Z,98549.81
2023-07-05T22:25:43.586Z,98538.56
2023-07-05T22:28:10.523Z,98541.22
2023-07-05T22:30:37.408Z,98547.44
2023-07-05T22:33:04.438Z,98548.13
2023-07-05T22:35:34.988Z,98557.47
2023-07-05T22:38:02.400Z,98559.28
2023-07-05T22:40:30.861Z,98559.16
2023-07-05T22:42:58.267Z,98571.41
2023-07-05T22:45:26.505Z,98574.34
2023-07-05T22:47:53.688Z,98587.25
2023-07-05T22:50:20.733Z,98580.59
2023-07-05T22:52:47.676Z,98592.34
2023-07-05T22:55:16.689Z,98602.62
2023-07-05T22:57:44.398Z,98593.84
2023-07-05T23:00:23.194Z,98602.78
2023-07-05T23:02:51.573Z,98602.31
2023-07-05T23:05:20.661Z,98618.81
2023-07-05T23:07:49.551Z,98616.22
2023-07-05T23:10:16.578Z,98627.31
2023-07-05T23:12:44.152Z,98640.19
2023-07-05T23:15:11.943Z,98644.44
2023-07-05T23:17:42.168Z,98645.13
2023-07-05T23:20:10.891Z,98650.81
2023-07-05T23:22:37.719Z,98655.06
2023-07-05T23:25:04.748Z,98653.78
2023-07-05T23:27:31.604Z,98644.50
2023-07-05T23:30:00.792Z,98659.03
2023-07-05T23:32:29.691Z,98666.03
2023-07-05T23:34:57.233Z,98666.03
2023-07-05T23:37:24.935Z,98670.28
2023-07-05T23:39:52.108Z,98667.03
2023-07-05T23:42:20.302Z,98668.16
2023-07-05T23:44:50.015Z,98669.94
2023-07-05T23:47:17.216Z,98674.19
2023-07-05T23:49:47.798Z,98669.00
2023-07-05T23:52:16.147Z,98670.47
2023-07-05T23:54:44.419Z,98674.72
2023-07-05T23:57:11.255Z,98664.59
2023-07-05T23:59:38.060Z,98660.22
